Time;durP1;ratioP1;P1;durP2;ratioP2;P2;SDS_P1;SDS_P2;PMS_P1;PMS_P2;Temp;Humidity;BMP_temperature;BMP_pressure;BME280_temperature;BME280_humidity;BME280_pressure;Samples;Min_cycle;Max_cycle;Signal;HPM_P1;HPM_P2
2023/11/06 00:02:06;;;;;;;8.70;6.80;;;;;;;;;;5052406;28;20411;-54
2023/11/06 00:04:32;;;;;;;6.25;5.63;;;;;;;;;;5051291;28;20025;-55
2023/11/06 00:06:58;;;;;;;8.35;6.18;;;;;;;;;;5052493;28;20078;-56
2023/11/06 00:09:25;;;;;;;7.70;6.35;;;;;;;;;;5052622;28;20097;-55
2023/11/06 00:11:51;;;;;;;7.20;6.43;;;;;;;;;;5048520;28;20043;-56
2023/11/06 00:14:17;;;;;;;6.25;5.65;;;;;;;;;;5052654;28;20025;-52
2023/11/06 00:16:43;;;;;;;8.68;5.63;;;;;;;;;;5052377;28;20086;-52
2023/11/06 00:19:09;;;;;;;6.32;5.57;;;;;;;;;;5052362;28;20024;-55
2023/11/06 00:21:37;;;;;;;7.10;6.28;;;;;;;;;;5052430;28;20028;-55
2023/11/06 00:24:04;;;;;;;7.63;6.38;;;;;;;;;;5052173;28;20036;-55
2023/11/06 00:26:30;;;;;;;7.63;6.50;;;;;;;;;;5052322;28;20021;-52
2023/11/06 00:28:56;;;;;;;7.32;6.05;;;;;;;;;;5041926;28;20022;-56
2023/11/06 00:31:22;;;;;;;6.53;5.85;;;;;;;;;;5040129;28;20052;-56
2023/11/06 00:33:53;;;;;;;7.65;6.85;;;;;;;;;;5050855;28;20037;-53
2023/11/06 00:36:19;;;;;;;7.53;6.13;;;;;;;;;;5037097;28;20492;-56
2023/11/06 00:38:45;;;;;;;7.47;6.78;;;;;;;;;;5052711;28;20028;-54
2023/11/06 00:41:15;;;;;;;7.15;6.55;;;;;;;;;;5051785;28;20482;-55
2023/11/06 00:43:41;;;;;;;8.73;6.95;;;;;;;;;;5051943;28;20029;-56
2023/11/06 00:46:07;;;;;;;8.13;6.88;;;;;;;;;;5051957;28;20382;-54
2023/11/06 00:48:36;;;;;;;8.18;7.05;;;;;;;;;;5051976;28;20536;-56
2023/11/06 00:51:02;;;;;;;8.15;6.93;;;;;;;;;;5051951;28;20047;-55
2023/11/06 00:53:28;;;;;;;8.18;6.88;;;;;;;;;;5051860;28;20107;-55
2023/11/06 00:55:54;;;;;;;7.72;6.22;;;;;;;;;;5050519;28;20053;-55
2023/11/06 00:58:21;;;;;;;8.85;6.70;;;;;;;;;;5038008;28;20100;-56
2023/11/06 01:00:47;;;;;;;8.40;7.43;;;;;;;;;;5051813;28;20440;-55
2023/11/06 01:03:22;;;;;;;9.15;7.50;;;;;;;;;;5051678;28;20033;-56
2023/11/06 01:05:48;;;;;;;8.43;6.63;;;;;;;;;;5051928;28;20048;-56
2023/11/06 01:08:14;;;;;;;9.00;6.95;;;;;;;;;;5051841;28;20055;-56
2023/11/06 01:10:40;;;;;;;8.10;7.03;;;;;;;;;;5053549;28;20123;-55
2023/11/06 01:13:06;;;;;;;8.57;7.22;;;;;;;;;;5055876;28;20059;-54
2023/11/06 01:15:32;;;;;;;9.43;7.38;;;;;;;;;;5055810;28;20029;-56
2023/11/06 01:17:59;;;;;;;9.45;7.25;;;;;;;;;;5042220;28;20033;-55
2023/11/06 01:20:25;;;;;;;7.55;6.68;;;;;;;;;;5055763;28;20021;-55
2023/11/06 01:22:51;;;;;;;11.55;7.25;;;;;;;;;;5055955;28;20044;-55
2023/11/06 01:25:17;;;;;;;7.80;6.97;;;;;;;;;;5055620;28;20025;-56
2023/11/06 01:27:43;;;;;;;6.70;6.00;;;;;;;;;;5055921;28;20459;-56
2023/11/06 01:30:12;;;;;;;10.57;6.43;;;;;;;;;;5056055;28;20048;-56
2023/11/06 01:32:39;;;;;;;7.18;6.47;;;;;;;;;;5055387;28;20033;-57
2023/11/06 01:35:05;;;;;;;8.25;7.20;;;;;;;;;;5055498;28;20021;-55
2023/11/06 01:37:31;;;;;;;7.35;6.55;;;;;;;;;;5054133;28;20477;-56
2023/11/06 01:39:57;;;;;;;9.43;7.45;;;;;;;;;;5054769;28;20032;-56
2023/11/06 01:42:23;;;;;;;8.75;7.22;;;;;;;;;;5055368;28;20439;-55
2023/11/06 01:44:49;;;;;;;7.88;7.07;;;;;;;;;;5052254;28;20115;-55
2023/11/06 01:47:15;;;;;;;7.40;6.45;;;;;;;;;;5054260;28;20124;-56
2023/11/06 01:49:45;;;;;;;8.10;7.30;;;;;;;;;;5055392;28;20064;-54
2023/11/06 01:52:14;;;;;;;6.35;5.70;;;;;;;;;;5054937;28;20013;-58
2023/11/06 01:54:40;;;;;;;7.60;6.80;;;;;;;;;;5055261;28;20425;-55
2023/11/06 01:57:07;;;;;;;8.52;7.00;;;;;;;;;;5055017;28;20017;-55
2023/11/06 01:59:33;;;;;;;8.98;7.10;;;;;;;;;;5055146;28;20475;-56
2023/11/06 02:02:04;;;;;;;8.77;7.22;;;;;;;;;;5053378;28;20029;-57
2023/11/06 02:04:30;;;;;;;11.63;7.47;;;;;;;;;;5055140;28;20405;-57
2023/11/06 02:06:56;;;;;;;11.82;7.78;;;;;;;;;;5054894;28;20029;-57
2023/11/06 02:09:24;;;;;;;8.32;7.40;;;;;;;;;;5054808;28;20036;-57
2023/11/06 02:11:50;;;;;;;8.48;6.85;;;;;;;;;;5054907;28;20013;-57
2023/11/06 02:14:16;;;;;;;9.43;7.95;;;;;;;;;;5054731;28;20029;-56
2023/11/06 02:16:42;;;;;;;9.18;7.90;;;;;;;;;;5054867;28;20403;-57
2023/11/06 02:19:08;;;;;;;9.80;8.23;;;;;;;;;;5054355;28;20029;-56
2023/11/06 02:21:35;;;;;;;8.60;7.68;;;;;;;;;;5052483;28;20450;-55
2023/11/06 02:24:01;;;;;;;10.02;8.02;;;;;;;;;;5052659;28;20536;-56
2023/11/06 02:26:27;;;;;;;9.23;8.20;;;;;;;;;;5053457;28;20025;-53
2023/11/06 02:28:53;;;;;;;9.57;8.52;;;;;;;;;;5053321;28;20021;-54
2023/11/06 02:31:19;;;;;;;9.75;8.38;;;;;;;;;;5052238;28;20029;-56
2023/11/06 02:33:45;;;;;;;9.80;8.63;;;;;;;;;;5052605;28;20029;-56
2023/11/06 02:36:11;;;;;;;13.32;9.32;;;;;;;;;;5050946;28;20061;-53
2023/11/06 02:38:37;;;;;;;11.23;9.65;;;;;;;;;;5047165;28;20045;-55
2023/11/06 02:41:03;;;;;;;10.00;9.00;;;;;;;;;;5048992;28;20087;-55
2023/11/06 02:43:29;;;;;;;12.02;9.10;;;;;;;;;;5050995;28;20104;-55
2023/11/06 02:45:56;;;;;;;12.40;9.20;;;;;;;;;;5053134;28;20045;-55
2023/11/06 02:48:22;;;;;;;11.75;9.43;;;;;;;;;;5051917;28;20039;-55
2023/11/06 02:50:49;;;;;;;9.80;8.80;;;;;;;;;;5052620;28;20478;-56
2023/11/06 02:53:15;;;;;;;11.38;9.52;;;;;;;;;;5053516;28;20052;-55
2023/11/06 02:55:41;;;;;;;11.20;8.73;;;;;;;;;;5053964;28;20462;-57
2023/11/06 02:58:07;;;;;;;11.35;8.75;;;;;;;;;;5053948;28;20100;-55
2023/11/06 03:00:33;;;;;;;11.48;9.18;;;;;;;;;;5044579;28;20025;-56
2023/11/06 03:02:59;;;;;;;10.63;9.63;;;;;;;;;;5051212;28;20462;-55
2023/11/06 03:05:25;;;;;;;10.48;9.38;;;;;;;;;;5053025;28;20036;-56
2023/11/06 03:07:51;;;;;;;10.38;9.27;;;;;;;;;;5046833;28;20036;-54
2023/11/06 03:10:17;;;;;;;11.43;9.50;;;;;;;;;;5053514;28;20021;-53
2023/11/06 03:12:43;;;;;;;14.45;9.85;;;;;;;;;;5053687;28;20023;-56
2023/11/06 03:15:12;;;;;;;12.48;10.43;;;;;;;;;;5052241;28;20120;-55
2023/11/06 03:17:38;;;;;;;11.15;9.65;;;;;;;;;;5052293;28;20058;-54
2023/11/06 03:20:10;;;;;;;11.23;9.75;;;;;;;;;;5053564;28;20379;-57
2023/11/06 03:22:37;;;;;;;10.57;9.57;;;;;;;;;;5053802;28;20110;-56
2023/11/06 03:25:04;;;;;;;13.75;9.50;;;;;;;;;;5053405;28;20024;-56
2023/11/06 03:27:30;;;;;;;11.35;8.80;;;;;;;;;;5053567;28;20013;-57
2023/11/06 03:29:56;;;;;;;11.10;9.75;;;;;;;;;;5053462;28;20052;-55
2023/11/06 03:32:22;;;;;;;12.13;9.43;;;;;;;;;;5039463;28;20013;-54
2023/11/06 03:34:48;;;;;;;11.30;10.10;;;;;;;;;;5053366;28;20513;-56
2023/11/06 03:37:14;;;;;;;10.00;9.02;;;;;;;;;;5053316;28;20013;-53
2023/11/06 03:39:41;;;;;;;12.27;9.77;;;;;;;;;;5053394;28;20024;-54
2023/11/06 03:42:07;;;;;;;10.20;9.10;;;;;;;;;;5053276;28;20083;-57
2023/11/06 03:44:33;;;;;;;10.20;8.80;;;;;;;;;;5053228;28;20100;-56
2023/11/06 03:46:59;;;;;;;11.48;9.73;;;;;;;;;;5053132;28;20025;-56
2023/11/06 03:49:25;;;;;;;11.25;8.73;;;;;;;;;;5051825;28;20028;-55
2023/11/06 03:51:51;;;;;;;12.05;9.23;;;;;;;;;;5051367;28;20355;-55
2023/11/06 03:54:17;;;;;;;10.65;8.35;;;;;;;;;;5052887;28;20027;-56
2023/11/06 03:56:43;;;;;;;11.07;9.68;;;;;;;;;;5053010;28;20099;-55
2023/11/06 03:59:09;;;;;;;11.18;9.60;;;;;;;;;;5052939;28;20074;-54
2023/11/06 04:01:35;;;;;;;15.48;9.73;;;;;;;;;;5052689;28;20025;-53
2023/11/06 04:04:02;;;;;;;10.68;9.45;;;;;;;;;;5052615;28;20100;-53
2023/11/06 04:06:29;;;;;;;11.00;9.07;;;;;;;;;;5048395;28;20470;-51
2023/11/06 04:08:56;;;;;;;11.10;9.43;;;;;;;;;;5043723;28;20051;-56
2023/11/06 04:23:36;;;;;;;13.23;9.27;;;;;;;;;;5047917;28;20052;-56
2023/11/06 04:26:02;;;;;;;10.43;9.30;;;;;;;;;;5053557;28;20025;-56
2023/11/06 04:28:28;;;;;;;10.23;8.82;;;;;;;;;;5052370;28;20394;-55
2023/11/06 04:30:54;;;;;;;10.93;9.73;;;;;;;;;;5051004;28;20021;-53
2023/11/06 04:33:20;;;;;;;11.70;10.02;;;;;;;;;;5052208;28;20143;-54
2023/11/06 04:35:46;;;;;;;12.50;9.05;;;;;;;;;;5052633;28;20358;-55
2023/11/06 04:38:12;;;;;;;10.40;8.40;;;;;;;;;;5052235;28;20107;-53
2023/11/06 04:40:38;;;;;;;13.07;8.70;;;;;;;;;;5051984;28;20555;-53
2023/11/06 04:43:04;;;;;;;10.43;8.02;;;;;;;;;;5052134;28;20044;-52
2023/11/06 04:45:30;;;;;;;9.13;7.82;;;;;;;;;;5051527;28;20393;-55
2023/11/06 04:47:56;;;;;;;9.27;8.38;;;;;;;;;;5052187;28;20040;-52
2023/11/06 04:50:22;;;;;;;8.95;8.05;;;;;;;;;;5052107;28;20021;-53
2023/11/06 04:52:48;;;;;;;12.15;8.80;;;;;;;;;;5052152;28;20100;-52
2023/11/06 04:55:14;;;;;;;9.25;8.35;;;;;;;;;;5052260;28;20028;-52
2023/11/06 04:57:40;;;;;;;9.48;8.23;;;;;;;;;;5051852;28;20025;-53
2023/11/06 05:00:07;;;;;;;9.45;8.45;;;;;;;;;;5052019;28;20036;-52
2023/11/06 05:02:33;;;;;;;11.48;8.63;;;;;;;;;;5051805;28;20029;-55
2023/11/06 05:04:59;;;;;;;10.20;8.45;;;;;;;;;;5052100;28;20040;-52
2023/11/06 05:07:25;;;;;;;9.85;8.38;;;;;;;;;;5051781;28;20099;-54
2023/11/06 05:09:51;;;;;;;10.20;8.35;;;;;;;;;;5051823;28;20389;-53
2023/11/06 05:12:17;;;;;;;9.75;8.35;;;;;;;;;;5051910;28;20025;-53
2023/11/06 05:14:43;;;;;;;10.32;8.75;;;;;;;;;;5040605;28;20029;-52
2023/11/06 05:17:10;;;;;;;11.48;8.07;;;;;;;;;;5037908;28;20116;-55
2023/11/06 05:19:41;;;;;;;9.52;8.55;;;;;;;;;;5047713;28;20440;-57
2023/11/06 05:22:07;;;;;;;11.77;8.57;;;;;;;;;;5043585;28;20071;-55
2023/11/06 05:24:33;;;;;;;9.82;8.52;;;;;;;;;;5051723;28;20029;-56
2023/11/06 05:27:00;;;;;;;9.52;8.40;;;;;;;;;;5051639;28;20458;-55
2023/11/06 05:29:26;;;;;;;11.85;8.35;;;;;;;;;;5051827;28;20025;-56
2023/11/06 05:31:52;;;;;;;9.85;8.77;;;;;;;;;;5051492;28;20103;-53
2023/11/06 05:34:18;;;;;;;11.07;8.45;;;;;;;;;;5051907;28;20040;-53
2023/11/06 05:36:44;;;;;;;11.00;9.23;;;;;;;;;;5051535;28;20094;-52
2023/11/06 05:39:11;;;;;;;11.90;8.35;;;;;;;;;;5051598;28;20452;-56
2023/11/06 05:41:37;;;;;;;12.32;9.05;;;;;;;;;;5051784;28;20084;-52
2023/11/06 05:44:03;;;;;;;12.57;9.20;;;;;;;;;;5051625;28;20127;-50
2023/11/06 05:46:29;;;;;;;8.88;7.93;;;;;;;;;;5043529;28;20025;-52
2023/11/06 05:48:55;;;;;;;12.95;8.88;;;;;;;;;;5048595;28;20100;-55
2023/11/06 05:51:22;;;;;;;11.73;9.23;;;;;;;;;;5051523;28;20153;-53
2023/11/06 05:53:48;;;;;;;10.43;8.60;;;;;;;;;;5051255;28;20082;-53
2023/11/06 05:56:13;;;;;;;8.68;7.75;;;;;;;;;;5052513;28;20381;-53
2023/11/06 05:58:39;;;;;;;9.27;8.00;;;;;;;;;;5044890;28;20116;-52
2023/11/06 06:01:06;;;;;;;9.13;8.02;;;;;;;;;;5054230;28;20029;-51
2023/11/06 06:03:31;;;;;;;10.98;8.57;;;;;;;;;;5054969;28;20501;-53
2023/11/06 06:05:58;;;;;;;8.88;7.97;;;;;;;;;;5052574;28;20025;-50
2023/11/06 06:08:24;;;;;;;9.70;7.95;;;;;;;;;;5044330;28;20065;-52
2023/11/06 06:10:50;;;;;;;7.88;6.18;;;;;;;;;;5051090;28;20028;-52
2023/11/06 06:13:16;;;;;;;7.93;6.70;;;;;;;;;;5053055;28;20363;-47
2023/11/06 06:15:41;;;;;;;7.78;6.47;;;;;;;;;;5054555;28;20032;-47
2023/11/06 06:18:07;;;;;;;8.63;7.28;;;;;;;;;;5054474;28;20083;-47
2023/11/06 06:20:33;;;;;;;9.05;6.72;;;;;;;;;;5054519;28;20118;-47
2023/11/06 06:22:59;;;;;;;7.30;5.80;;;;;;;;;;5054619;28;20471;-47
2023/11/06 06:25:25;;;;;;;6.90;6.20;;;;;;;;;;5054312;28;20017;-47
2023/11/06 06:27:51;;;;;;;7.63;5.55;;;;;;;;;;5054334;28;20492;-47
2023/11/06 06:30:17;;;;;;;7.32;6.20;;;;;;;;;;5054328;28;20017;-49
2023/11/06 06:32:43;;;;;;;6.22;5.40;;;;;;;;;;5054233;28;20032;-50
2023/11/06 06:35:10;;;;;;;6.18;5.53;;;;;;;;;;5052856;28;20032;-48
2023/11/06 06:37:36;;;;;;;6.07;5.47;;;;;;;;;;5054254;28;20028;-48
2023/11/06 06:40:06;;;;;;;6.32;5.63;;;;;;;;;;5054094;28;20048;-50
2023/11/06 06:42:32;;;;;;;6.97;5.85;;;;;;;;;;5054461;28;20052;-48
2023/11/06 06:44:58;;;;;;;7.30;5.38;;;;;;;;;;5054123;28;20025;-48
2023/11/06 06:47:24;;;;;;;6.43;5.80;;;;;;;;;;5053592;28;20028;-49
2023/11/06 06:49:51;;;;;;;7.32;5.55;;;;;;;;;;5054065;28;20017;-50
2023/11/06 06:52:17;;;;;;;6.32;5.68;;;;;;;;;;5053892;28;20067;-48
2023/11/06 06:54:43;;;;;;;5.95;5.15;;;;;;;;;;5052738;28;20356;-48
2023/11/06 06:57:09;;;;;;;7.82;5.93;;;;;;;;;;5054195;28;20381;-49
2023/11/06 06:59:35;;;;;;;10.73;6.78;;;;;;;;;;5053894;28;20014;-50
2023/11/06 07:02:01;;;;;;;8.10;6.22;;;;;;;;;;5053800;28;20021;-48
2023/11/06 07:04:27;;;;;;;7.25;6.05;;;;;;;;;;5053652;28;20027;-51
2023/11/06 07:06:53;;;;;;;10.23;7.63;;;;;;;;;;5054032;28;20523;-51
2023/11/06 07:09:19;;;;;;;8.20;6.82;;;;;;;;;;5053136;28;20028;-50
2023/11/06 07:11:45;;;;;;;10.00;6.97;;;;;;;;;;5053824;28;20112;-49
2023/11/06 07:14:11;;;;;;;11.55;7.63;;;;;;;;;;5051074;28;20322;-54
2023/11/06 07:16:37;;;;;;;12.45;8.38;;;;;;;;;;5043938;28;20021;-51
2023/11/06 07:19:03;;;;;;;9.43;7.65;;;;;;;;;;5050558;28;20074;-53
2023/11/06 07:21:30;;;;;;;12.57;7.85;;;;;;;;;;5047271;28;20032;-52
2023/11/06 07:23:56;;;;;;;10.23;8.10;;;;;;;;;;5051544;28;20040;-54
2023/11/06 07:26:22;;;;;;;11.25;8.93;;;;;;;;;;5040176;28;20459;-55
2023/11/06 07:28:49;;;;;;;11.73;9.60;;;;;;;;;;5053416;28;20025;-52
2023/11/06 07:31:15;;;;;;;13.10;9.00;;;;;;;;;;5052930;28;20025;-52
2023/11/06 07:33:41;;;;;;;9.73;8.32;;;;;;;;;;5053023;28;20429;-51
2023/11/06 07:36:08;;;;;;;16.42;10.30;;;;;;;;;;5053270;28;20021;-55
2023/11/06 07:38:34;;;;;;;13.00;10.32;;;;;;;;;;5053083;28;20017;-52
2023/11/06 07:41:00;;;;;;;14.02;10.40;;;;;;;;;;5052885;28;20049;-51
2023/11/06 07:43:26;;;;;;;25.65;15.40;;;;;;;;;;5052804;28;20041;-52
2023/11/06 07:45:52;;;;;;;19.55;12.20;;;;;;;;;;5052866;28;20021;-50
2023/11/06 07:48:18;;;;;;;14.50;12.27;;;;;;;;;;5047487;28;20316;-50
2023/11/06 07:50:44;;;;;;;24.65;13.00;;;;;;;;;;5052850;28;20028;-51
2023/11/06 07:53:10;;;;;;;17.23;12.15;;;;;;;;;;5052819;28;20035;-50
2023/11/06 07:55:37;;;;;;;22.98;12.55;;;;;;;;;;5051126;28;20021;-47
2023/11/06 07:58:03;;;;;;;16.60;11.75;;;;;;;;;;5052658;28;20033;-49
2023/11/06 08:00:29;;;;;;;17.15;12.80;;;;;;;;;;5052578;28;20032;-49
2023/11/06 08:02:55;;;;;;;16.50;12.45;;;;;;;;;;5051309;28;20060;-51
2023/11/06 08:05:21;;;;;;;16.20;12.57;;;;;;;;;;5052473;28;20071;-48
2023/11/06 08:07:49;;;;;;;17.85;14.00;;;;;;;;;;5052622;28;20203;-49
2023/11/06 08:10:15;;;;;;;17.00;12.57;;;;;;;;;;5052616;28;20470;-49
2023/11/06 08:12:42;;;;;;;19.02;12.52;;;;;;;;;;5038411;28;20017;-52
2023/11/06 08:15:08;;;;;;;17.90;13.75;;;;;;;;;;5052536;28;20032;-49
2023/11/06 08:17:35;;;;;;;19.30;13.75;;;;;;;;;;5052382;28;20063;-49
2023/11/06 08:20:01;;;;;;;14.77;12.95;;;;;;;;;;5051858;28;20371;-49
2023/11/06 08:22:29;;;;;;;18.65;13.70;;;;;;;;;;5052295;28;20104;-49
2023/11/06 08:24:55;;;;;;;15.73;14.13;;;;;;;;;;5043985;28;20025;-62
2023/11/06 08:27:21;;;;;;;18.50;14.55;;;;;;;;;;5051842;28;20094;-63
2023/11/06 08:29:48;;;;;;;18.50;14.07;;;;;;;;;;5047764;28;20043;-62
2023/11/06 08:32:14;;;;;;;17.50;13.65;;;;;;;;;;5049819;28;20062;-63
2023/11/06 08:34:43;;;;;;;16.25;13.50;;;;;;;;;;5053489;28;20036;-64
2023/11/06 08:37:11;;;;;;;17.67;13.88;;;;;;;;;;5042102;28;20163;-62
2023/11/06 08:39:41;;;;;;;16.20;14.50;;;;;;;;;;5048055;28;20029;-63
2023/11/06 08:42:08;;;;;;;16.80;14.15;;;;;;;;;;5047020;28;20059;-62
2023/11/06 08:44:34;;;;;;;16.50;14.27;;;;;;;;;;5046877;28;20448;-63
2023/11/06 08:47:00;;;;;;;19.98;15.70;;;;;;;;;;5051940;28;20033;-54
2023/11/06 08:49:26;;;;;;;22.45;15.90;;;;;;;;;;5048797;28;20029;-57
2023/11/06 08:51:53;;;;;;;19.30;16.10;;;;;;;;;;5049041;28;20612;-57
2023/11/06 08:54:19;;;;;;;16.50;14.55;;;;;;;;;;5037629;28;20018;-57
2023/11/06 08:56:45;;;;;;;17.45;15.13;;;;;;;;;;5043499;28;20076;-60
2023/11/06 08:59:12;;;;;;;16.55;14.85;;;;;;;;;;5039637;28;20494;-60
2023/11/06 09:01:38;;;;;;;19.83;15.10;;;;;;;;;;5049470;28;20247;-58
2023/11/06 09:04:06;;;;;;;22.60;12.70;;;;;;;;;;5060461;28;20038;-60
2023/11/06 09:06:32;;;;;;;15.27;13.32;;;;;;;;;;5051647;28;20024;-60
2023/11/06 09:08:58;;;;;;;36.05;14.27;;;;;;;;;;5048149;28;20479;-60
2023/11/06 09:11:25;;;;;;;19.48;11.40;;;;;;;;;;5052319;28;20100;-60
2023/11/06 09:13:51;;;;;;;37.75;13.23;;;;;;;;;;5063860;28;20060;-59
2023/11/06 09:16:17;;;;;;;34.67;13.50;;;;;;;;;;5054682;28;20137;-64
2023/11/06 09:18:44;;;;;;;15.60;11.25;;;;;;;;;;5053763;28;20044;-58
2023/11/06 09:21:13;;;;;;;23.83;17.45;;;;;;;;;;5051474;28;20036;-51
2023/11/06 09:23:39;;;;;;;30.77;11.85;;;;;;;;;;5035913;28;20036;-52
2023/11/06 09:26:06;;;;;;;24.95;11.85;;;;;;;;;;5041925;28;20471;-51
2023/11/06 09:28:32;;;;;;;23.35;10.35;;;;;;;;;;5045492;28;20051;-51
2023/11/06 09:30:58;;;;;;;14.32;8.75;;;;;;;;;;5039994;28;20099;-50
2023/11/06 09:33:25;;;;;;;12.50;9.38;;;;;;;;;;5055797;28;20048;-49
2023/11/06 09:35:51;;;;;;;11.38;8.88;;;;;;;;;;5048790;28;20029;-49
2023/11/06 09:38:18;;;;;;;8.63;7.82;;;;;;;;;;5042570;28;20374;-50
2023/11/06 09:40:45;;;;;;;7.82;7.00;;;;;;;;;;5055370;28;20170;-48
2023/11/06 09:43:11;;;;;;;10.23;8.38;;;;;;;;;;5039989;28;20521;-49
2023/11/06 09:45:37;;;;;;;13.35;7.43;;;;;;;;;;5053971;28;20372;-52
2023/11/06 09:48:08;;;;;;;14.57;7.60;;;;;;;;;;5055336;28;20538;-49
2023/11/06 09:50:35;;;;;;;15.23;7.25;;;;;;;;;;5055531;28;20055;-48
2023/11/06 09:53:02;;;;;;;9.90;7.20;;;;;;;;;;5055028;28;20018;-50
2023/11/06 09:55:28;;;;;;;12.10;7.55;;;;;;;;;;5055479;28;20370;-52
2023/11/06 09:57:55;;;;;;;10.85;7.38;;;;;;;;;;5055156;28;20056;-49
2023/11/06 10:00:22;;;;;;;8.68;7.65;;;;;;;;;;5055342;28;20032;-48
2023/11/06 10:02:49;;;;;;;9.82;7.13;;;;;;;;;;5054950;28;20398;-47
2023/11/06 10:05:16;;;;;;;9.25;6.85;;;;;;;;;;5055161;28;20044;-49
2023/11/06 10:07:45;;;;;;;43.75;12.43;;;;;;;;;;5055391;28;20159;-53
2023/11/06 10:10:32;;;;;;;17.02;8.13;;;;;;;;;;5054865;28;20025;-48
2023/11/06 10:13:03;;;;;;;11.60;7.43;;;;;;;;;;5054740;28;20025;-58
2023/11/06 10:15:29;;;;;;;12.60;6.70;;;;;;;;;;5054623;28;20025;-59
2023/11/06 10:17:56;;;;;;;7.45;6.45;;;;;;;;;;5053361;28;20048;-59
2023/11/06 10:20:26;;;;;;;8.40;6.65;;;;;;;;;;5053082;28;20029;-60
2023/11/06 10:22:56;;;;;;;7.85;6.43;;;;;;;;;;5048635;28;20557;-60
2023/11/06 10:25:28;;;;;;;8.27;5.80;;;27.20;1.00;;;;;;5058089;28;20104;-60
2023/11/06 10:27:57;;;;;;;8.95;6.60;;;28.20;1.00;;;;;;5048944;28;20083;-63
2023/11/06 10:30:24;;;;;;;6.18;5.57;;;28.20;1.00;;;;;;5054279;28;20501;-64
2023/11/06 10:32:49;;;;;;;12.10;6.63;;;28.20;1.00;;;;;;5040148;28;20112;-70
2023/11/06 10:35:17;;;;;;;7.07;5.95;;;28.20;1.00;;;;;;5062632;28;20112;-69
2023/11/06 10:37:44;;;;;;;7.20;5.82;;;28.20;1.00;;;;;;5056934;28;20032;-71
2023/11/06 10:40:17;;;;;;;16.42;6.40;;;28.20;1.00;;;;;;5047662;28;20017;-67
2023/11/06 10:42:45;;;;;;;7.05;5.40;;;28.20;1.00;;;;;;5046778;28;20439;-67
2023/11/06 10:45:14;;;;;;;9.93;5.28;;;28.20;1.00;;;;;;5052367;28;20028;-68
2023/11/06 10:47:45;;;;;;;10.00;5.30;;;28.30;1.00;;;;;;5049346;28;20433;-66
2023/11/06 10:50:18;;;;;;;9.07;5.28;;;28.30;1.00;;;;;;5054211;28;20036;-65
2023/11/06 10:52:54;;;;;;;7.53;5.18;;;28.30;1.00;;;;;;5052474;28;20112;-64
2023/11/06 10:55:23;;;;;;;5.78;4.60;;;28.30;1.00;;;;;;5054793;28;20442;-62
2023/11/06 10:57:56;;;;;;;7.13;5.32;;;28.30;1.00;;;;;;5052972;28;20055;-59
2023/11/06 11:00:23;;;;;;;5.97;5.00;;;28.30;99.90;;;;;;5052323;28;20461;-59
2023/11/06 11:02:57;;;;;;;5.32;4.75;;;28.40;1.00;;;;;;5053569;28;20068;-60
2023/11/06 11:05:24;;;;;;;6.03;5.35;;;28.40;99.90;;;;;;5051639;28;20032;-60
2023/11/06 11:07:51;;;;;;;6.70;5.18;;;28.40;99.90;;;;;;5054145;28;20422;-60
2023/11/06 11:10:19;;;;;;;8.93;4.97;;;28.40;1.00;;;;;;5054002;28;20036;-60
2023/11/06 11:12:52;;;;;;;7.75;5.20;;;;;;;;;;5053327;28;20319;-60
2023/11/06 11:15:24;;;;;;;5.93;4.47;;;;;;;;;;5049448;28;20035;-65
2023/11/06 11:18:13;;;;;;;5.93;5.13;;;;;;;;;;5053689;28;20030;-51
2023/11/06 11:20:52;;;;;;;4.65;4.22;;;;;;;;;;5052926;28;20021;-50
2023/11/06 11:23:35;;;;;;;6.65;4.72;;;;;;;;;;5050857;28;20158;-53
2023/11/06 11:26:03;;;;;;;4.70;4.25;;;;;;;;;;5038709;28;20013;-52
2023/11/06 11:28:49;;;;;;;5.28;4.78;;;;;;;;;;5053011;28;20021;-54
2023/11/06 11:31:34;;;;;;;5.70;5.13;;;;;;;;;;5052444;28;20312;-53
2023/11/06 11:34:00;;;;;;;7.32;4.72;;;;;;;;;;5038537;28;20340;-54
2023/11/06 11:36:34;;;;;;;6.22;4.85;;;;;;;;;;5052721;28;20370;-52
2023/11/06 11:39:05;;;;;;;5.13;4.47;;;;;;;;;;5041535;28;20021;-50
2023/11/06 11:41:31;;;;;;;6.07;4.75;;;;;;;;;;5035916;28;20045;-52
2023/11/06 11:44:10;;;;;;;7.28;5.60;;;;;;;;;;5052365;28;20033;-54
2023/11/06 11:46:39;;;;;;;6.32;5.22;;;;;;;;;;5051095;28;20044;-51
2023/11/06 11:49:05;;;;;;;6.50;5.35;;;;;;;;;;5042310;28;20036;-50
2023/11/06 11:51:51;;;;;;;8.02;5.85;;;;;;;;;;5045891;28;20067;-51
2023/11/06 11:54:16;;;;;;;;;;;;;;;;;;5049330;28;20513;-53
2023/11/06 11:56:49;;;;;;;6.07;5.22;;;;;;;;;;5049291;28;19940;-51
2023/11/06 11:59:15;;;;;;;6.68;4.90;;;;;;;;;;5051780;28;20025;-50
2023/11/06 12:01:41;;;;;;;6.68;5.72;;;;;;;;;;5051843;28;20025;-55
2023/11/06 12:04:20;;;;;;;9.27;5.43;;;;;;;;;;5052149;28;20063;-54
2023/11/06 12:06:47;;;;;;;6.38;5.78;;;;;;;;;;5052929;28;20029;-52
2023/11/06 12:09:13;;;;;;;5.63;5.13;;;;;;;;;;5052600;28;20373;-52
2023/11/06 12:11:40;;;;;;;6.60;4.95;;;;;;;;;;5052784;28;20083;-51
2023/11/06 12:14:06;;;;;;;5.53;5.00;;;;;;;;;;5052100;28;20146;-48
2023/11/06 12:16:31;;;;;;;6.13;5.53;;;;;;;;;;5052454;28;20108;-50
2023/11/06 12:18:57;;;;;;;5.53;5.03;;;;;;;;;;5042913;28;21514;-51
2023/11/06 12:21:23;;;;;;;6.30;4.78;;;;;;;;;;5052406;28;20029;-49
2023/11/06 12:23:50;;;;;;;6.10;4.72;;;;;;;;;;5052334;28;20067;-52
2023/11/06 12:26:17;;;;;;;6.43;4.30;;;;;;;;;;5052397;28;20463;-53
2023/11/06 12:28:50;;;;;;;5.75;5.15;;;;;;;;;;5052471;28;20203;-53
2023/11/06 12:31:16;;;;;;;7.88;5.22;;;;;;;;;;5051770;28;20048;-52
2023/11/06 12:33:42;;;;;;;6.35;4.53;;;;;;;;;;5052100;28;20029;-51
2023/11/06 12:36:25;;;;;;;8.57;4.50;;;;;;;;;;5037944;28;20501;-51
2023/11/06 12:38:51;;;;;;;5.85;4.07;;;;;;;;;;5052249;28;20478;-53
2023/11/06 12:41:38;;;;;;;6.13;4.65;;;;;;;;;;5051935;28;20037;-54
2023/11/06 12:44:08;;;;;;;6.22;5.05;;;;;;;;;;5051921;28;20462;-50
2023/11/06 12:46:45;;;;;;;6.18;4.72;;;;;;;;;;5051911;28;20523;-50
2023/11/06 12:49:11;;;;;;;5.07;4.60;;;;;;;;;;5048960;28;20381;-52
2023/11/06 12:51:37;;;;;;;5.47;4.68;;;;;;;;;;5051823;28;20039;-53
2023/11/06 12:54:03;;;;;;;6.63;5.20;;;;;;;;;;5051885;28;20537;-52
2023/11/06 12:56:29;;;;;;;5.15;4.63;;;;;;;;;;5051904;28;20372;-50
2023/11/06 12:58:56;;;;;;;7.85;4.97;;;;;;;;;;5051953;28;20036;-50
2023/11/06 13:01:23;;;;;;;6.50;4.75;;;;;;;;;;5051544;28;20438;-55
2023/11/06 13:03:53;;;;;;;8.68;5.00;;;;;;;;;;5051440;28;20052;-50
2023/11/06 13:06:19;;;;;;;5.78;5.00;;;;;;;;;;5048719;28;20029;-52
2023/11/06 13:08:45;;;;;;;6.85;5.40;;;;;;;;;;5048372;28;20036;-54
2023/11/06 13:11:12;;;;;;;4.97;4.47;;;;;;;;;;5044724;28;20036;-52
2023/11/06 13:13:39;;;;;;;6.78;4.22;;;;;;;;;;5047139;28;20032;-53
2023/11/06 13:16:06;;;;;;;6.07;4.35;;;;;;;;;;5043408;28;20159;-53
2023/11/06 13:18:34;;;;;;;7.47;5.05;;;;;;;;;;5044374;28;20051;-51
2023/11/06 13:21:21;;;;;;;8.27;4.90;;;;;;;;;;5040687;28;20108;-50
2023/11/06 13:23:48;;;;;;;6.47;4.10;;;;;;;;;;5045538;28;20056;-54
2023/11/06 13:26:15;;;;;;;6.03;4.43;;;;;;;;;;5048797;28;20023;-53
2023/11/06 13:28:41;;;;;;;7.30;4.45;;;;;;;;;;5034596;28;20037;-51
2023/11/06 13:31:07;;;;;;;82.57;15.55;;;;;;;;;;5048458;28;20021;-49
2023/11/06 13:33:34;;;;;;;51.47;10.43;;;;;;;;;;5048392;28;20433;-52
2023/11/06 13:36:00;;;;;;;37.65;7.53;;;;;;;;;;5048282;28;20474;-53
2023/11/06 13:38:26;;;;;;;6.75;4.43;;;;;;;;;;5048371;28;20025;-53
2023/11/06 13:40:52;;;;;;;6.75;5.40;;;;;;;;;;5048178;28;20045;-51
2023/11/06 13:43:18;;;;;;;5.68;4.60;;;;;;;;;;5048391;28;20593;-50
2023/11/06 13:45:46;;;;;;;6.72;5.07;;;;;;;;;;5048291;28;20033;-51
2023/11/06 13:48:12;;;;;;;8.25;5.15;;;;;;;;;;5040593;28;20031;-54
2023/11/06 13:50:51;;;;;;;7.78;5.00;;;;;;;;;;5042494;28;20025;-53
2023/11/06 13:53:24;;;;;;;13.27;5.65;;;;;;;;;;5048377;28;20743;-53
2023/11/06 13:55:52;;;;;;;7.45;4.82;;;;;;;;;;5048061;28;20099;-52
2023/11/06 13:58:18;;;;;;;9.13;4.95;;;;;;;;;;5041224;28;20029;-54
2023/11/06 14:00:48;;;;;;;6.55;4.68;;;;;;;;;;5041617;28;20104;-52
2023/11/06 14:03:15;;;;;;;6.40;4.32;;;;;;;;;;5048254;28;20029;-49
2023/11/06 14:05:45;;;;;;;6.63;5.07;;;;;;;;;;5048210;28;20067;-50
2023/11/06 14:08:15;;;;;;;7.47;4.95;;;;;;;;;;5034573;28;20773;-51
2023/11/06 14:10:45;;;;;;;11.57;5.50;;;;;;;;;;5046912;28;20706;-54
2023/11/06 14:13:18;;;;;;;6.57;4.78;;;;;;;;;;5047922;28;20032;-53
2023/11/06 14:15:50;;;;;;;7.63;5.00;;;;;;;;;;5048065;28;20393;-51
2023/11/06 14:18:16;;;;;;;7.35;5.13;;;;;;;;;;5048786;28;20025;-51
2023/11/06 14:20:41;;;;;;;9.18;5.25;;;;;;;;;;5051427;28;20014;-55
2023/11/06 14:23:07;;;;;;;6.35;5.28;;;;;;;;;;5052351;28;20029;-54
2023/11/06 14:25:33;;;;;;;6.97;5.43;;;;;;;;;;5052286;28;20021;-48
2023/11/06 14:28:00;;;;;;;7.05;5.13;;;;;;;;;;5051512;28;20021;-54
2023/11/06 14:30:27;;;;;;;7.85;4.97;;;;;;;;;;5051322;28;20573;-52
2023/11/06 14:32:53;;;;;;;8.20;5.57;;;;;;;;;;5051601;28;20702;-52
2023/11/06 14:35:20;;;;;;;6.20;4.78;;;;;;;;;;5051806;28;20428;-53
2023/11/06 14:37:51;;;;;;;5.65;4.45;;;;;;;;;;5049965;28;20032;-54
2023/11/06 14:40:18;;;;;;;8.55;5.20;;;;;;;;;;5037570;28;20454;-54
2023/11/06 14:42:45;;;;;;;8.05;5.25;;;;;;;;;;5051298;28;20080;-55